createdAt,value
2019-05-09T00:02:10.468Z,66.96
2019-05-09T00:04:40.060Z,66.85
2019-05-09T00:07:09.618Z,66.79
2019-05-09T00:09:39.084Z,66.66
2019-05-09T00:12:08.564Z,66.64
2019-05-09T00:14:38.036Z,66.65
2019-05-09T00:17:07.661Z,66.58
2019-05-09T00:19:37.186Z,66.52
2019-05-09T00:22:06.807Z,66.53
2019-05-09T00:24:36.295Z,66.59
2019-05-09T00:27:05.916Z,66.73
2019-05-09T00:29:46.156Z,66.48
2019-05-09T00:32:35.466Z,66.46
2019-05-09T00:35:13.964Z,66.44
2019-05-09T00:37:59.400Z,66.48
2019-05-09T00:40:28.963Z,66.46
2019-05-09T00:42:58.489Z,66.47
2019-05-09T00:45:45.638Z,66.57
2019-05-09T00:48:16.744Z,66.67
2019-05-09T00:50:46.221Z,66.74
2019-05-09T00:53:15.684Z,66.85
2019-05-09T00:55:45.297Z,66.77
2019-05-09T00:58:14.783Z,66.68
2019-05-09T01:00:44.427Z,66.71
2019-05-09T01:03:14.338Z,66.59
2019-05-09T01:05:47.233Z,66.67
2019-05-09T01:08:15.156Z,66.60
2019-05-09T01:10:44.646Z,66.64
2019-05-09T01:13:14.309Z,66.72
2019-05-09T01:15:44.392Z,66.83
2019-05-09T01:18:13.872Z,67.14
2019-05-09T01:20:44.076Z,67.09
2019-05-09T01:23:14.263Z,67.20
2019-05-09T01:25:44.054Z,67.27
2019-05-09T01:28:14.052Z,67.06
2019-05-09T01:30:43.980Z,67.16
2019-05-09T01:33:20.790Z,67.17
2019-05-09T01:35:50.281Z,67.09
2019-05-09T01:38:19.738Z,67.06
2019-05-09T01:40:49.243Z,67.03
2019-05-09T01:43:18.707Z,67.02
2019-05-09T01:45:48.227Z,67.05
2019-05-09T01:48:17.821Z,67.27
2019-05-09T01:50:47.271Z,67.20
2019-05-09T01:53:18.396Z,67.01
2019-05-09T01:56:00.686Z,67.31
2019-05-09T01:58:34.342Z,67.25
2019-05-09T02:01:06.055Z,67.39
2019-05-09T02:03:35.675Z,67.43
2019-05-09T02:06:05.756Z,67.46
2019-05-09T02:08:35.244Z,67.50
2019-05-09T02:11:04.924Z,67.54
2019-05-09T02:13:34.472Z,67.61
2019-05-09T02:16:15.754Z,67.54
2019-05-09T02:18:46.886Z,67.64
2019-05-09T02:21:16.358Z,67.88
2019-05-09T02:23:45.846Z,67.62
2019-05-09T02:26:15.336Z,67.59
2019-05-09T02:28:44.957Z,67.83
2019-05-09T02:31:16.247Z,67.80
2019-05-09T02:33:46.068Z,67.63
2019-05-09T02:36:18.724Z,67.66
2019-05-09T02:38:48.788Z,67.52
2019-05-09T02:41:19.587Z,67.70
2019-05-09T02:43:49.977Z,67.76
2019-05-09T02:46:19.521Z,67.57
2019-05-09T02:48:49.642Z,67.66
2019-05-09T02:51:19.351Z,67.97
2019-05-09T02:53:48.907Z,67.72
2019-05-09T02:56:19.142Z,67.32
2019-05-09T02:58:50.376Z,67.17
2019-05-09T03:01:39.152Z,66.91
2019-05-09T03:04:08.907Z,66.90
2019-05-09T03:06:39.154Z,66.66
2019-05-09T03:09:09.211Z,66.65
2019-05-09T03:11:39.149Z,66.78
2019-05-09T03:14:09.313Z,66.76
2019-05-09T03:16:39.935Z,66.69
2019-05-09T03:19:09.635Z,66.63
2019-05-09T03:21:40.775Z,66.65
2019-05-09T03:24:10.385Z,66.75
2019-05-09T03:26:41.456Z,66.98
2019-05-09T03:29:12.589Z,67.05
2019-05-09T03:31:43.428Z,67.18
2019-05-09T03:34:12.952Z,67.38
2019-05-09T03:36:42.528Z,67.48
2019-05-09T03:39:12.006Z,67.61
2019-05-09T03:41:41.467Z,67.92
2019-05-09T03:44:11.098Z,68.16
2019-05-09T03:46:42.983Z,68.42
2019-05-09T03:49:14.091Z,68.50
2019-05-09T03:51:43.571Z,68.72
2019-05-09T03:54:13.033Z,68.82
2019-05-09T03:56:50.102Z,69.00
2019-05-09T03:59:19.573Z,68.95
2019-05-09T04:01:50.333Z,68.90
2019-05-09T04:04:20.006Z,68.89
2019-05-09T04:06:49.503Z,68.91
2019-05-09T04:09:19.021Z,68.86
2019-05-09T04:11:48.685Z,68.95
2019-05-09T04:14:28.615Z,68.81
2019-05-09T04:16:58.149Z,68.85
2019-05-09T04:19:27.761Z,68.74
2019-05-09T04:21:57.731Z,68.52
2019-05-09T04:24:28.932Z,68.60
2019-05-09T04:27:07.774Z,68.54
2019-05-09T04:29:37.443Z,68.30
2019-05-09T04:32:07.959Z,68.14
2019-05-09T04:34:38.190Z,68.07
2019-05-09T04:37:08.487Z,67.98
2019-05-09T04:39:40.688Z,67.94
2019-05-09T04:42:10.361Z,68.03
2019-05-09T04:44:49.859Z,67.90
2019-05-09T04:47:18.373Z,67.89
2019-05-09T04:49:48.055Z,67.62
2019-05-09T04:52:20.643Z,67.62
2019-05-09T04:54:50.172Z,67.74
2019-05-09T04:57:19.622Z,67.63
2019-05-09T04:59:49.088Z,67.79
2019-05-09T05:02:27.675Z,67.63
2019-05-09T05:04:58.514Z,67.81
2019-05-09T05:07:28.803Z,67.87
2019-05-09T05:09:58.408Z,67.81
2019-05-09T05:12:27.918Z,67.82
2019-05-09T05:14:58.077Z,67.48
2019-05-09T05:17:28.282Z,67.84
2019-05-09T05:19:59.917Z,67.77
2019-05-09T05:25:28.415Z,67.35
2019-05-09T05:27:58.234Z,67.28
2019-05-09T05:30:28.413Z,67.23
2019-05-09T05:32:59.612Z,67.15
2019-05-09T05:35:30.793Z,67.22
2019-05-09T05:38:00.247Z,67.30
2019-05-09T05:40:33.100Z,67.65
2019-05-09T05:43:00.927Z,67.45
2019-05-09T05:45:32.034Z,67.35
2019-05-09T05:48:08.871Z,67.14
2019-05-09T05:50:38.359Z,67.13
2019-05-09T05:53:08.026Z,67.33
2019-05-09T05:55:38.030Z,67.14
2019-05-09T05:58:08.569Z,67.04
2019-05-09T06:00:38.310Z,67.42
2019-05-09T06:03:08.773Z,67.46
2019-05-09T06:05:38.483Z,67.92
2019-05-09T06:08:08.249Z,67.82
2019-05-09T06:10:39.014Z,67.76
2019-05-09T06:13:08.481Z,67.80
2019-05-09T06:15:38.116Z,67.24
2019-05-09T06:18:08.089Z,67.21
2019-05-09T06:20:38.554Z,67.19
2019-05-09T06:23:08.731Z,67.10
2019-05-09T06:25:38.939Z,67.17
2019-05-09T06:28:09.103Z,66.68
2019-05-09T06:30:41.232Z,67.04
2019-05-09T06:33:09.871Z,67.48
2019-05-09T06:35:39.360Z,66.48
2019-05-09T06:38:08.907Z,66.26
2019-05-09T06:40:38.487Z,66.06
2019-05-09T06:43:21.506Z,66.29
2019-05-09T06:45:59.495Z,66.34
2019-05-09T06:48:28.982Z,65.70
2019-05-09T06:50:58.549Z,65.28
2019-05-09T06:53:28.046Z,64.58
2019-05-09T06:55:58.079Z,63.87
2019-05-09T06:58:35.006Z,64.01
2019-05-09T07:01:18.083Z,63.94
2019-05-09T07:03:54.528Z,63.32
2019-05-09T07:06:28.491Z,62.29
2019-05-09T07:09:02.097Z,61.98
2019-05-09T07:11:31.568Z,62.32
2019-05-09T07:14:01.070Z,61.62
2019-05-09T07:16:30.601Z,61.58
2019-05-09T07:19:00.017Z,61.42
2019-05-09T07:21:48.529Z,61.44
2019-05-09T07:24:18.797Z,60.94
2019-05-09T07:26:48.299Z,60.84
2019-05-09T07:29:17.932Z,60.32
2019-05-09T07:31:49.202Z,61.39
2019-05-09T07:34:20.298Z,60.22
2019-05-09T07:36:49.805Z,59.94
2019-05-09T07:39:19.341Z,59.55
2019-05-09T07:41:48.854Z,58.86
2019-05-09T07:44:18.486Z,57.88
2019-05-09T07:46:49.658Z,58.81
2019-05-09T07:49:19.137Z,58.28
2019-05-09T07:51:48.643Z,57.80
2019-05-09T07:54:24.806Z,57.90
2019-05-09T07:56:49.312Z,57.87
2019-05-09T07:59:18.765Z,56.93
2019-05-09T08:01:49.906Z,55.47
2019-05-09T08:04:19.432Z,56.39
2019-05-09T08:06:48.986Z,55.96
2019-05-09T08:09:18.793Z,55.94
2019-05-09T08:11:49.945Z,55.57
2019-05-09T08:14:19.427Z,54.53
2019-05-09T08:16:48.934Z,55.21
2019-05-09T08:19:18.383Z,55.88
2019-05-09T08:21:48.103Z,55.60
2019-05-09T08:24:18.288Z,54.98
2019-05-09T08:26:47.972Z,53.38
2019-05-09T08:29:19.925Z,53.65
2019-05-09T08:31:48.718Z,52.90
2019-05-09T08:34:18.788Z,52.54
2019-05-09T08:36:48.273Z,52.00
2019-05-09T08:39:18.370Z,52.37
2019-05-09T08:41:48.970Z,52.87
2019-05-09T08:44:18.786Z,53.22
2019-05-09T08:46:48.318Z,53.54
2019-05-09T08:49:19.497Z,53.24
2019-05-09T08:52:09.217Z,52.28
2019-05-09T08:54:44.069Z,52.29
2019-05-09T08:57:14.549Z,51.62
2019-05-09T08:59:47.067Z,51.56
2019-05-09T09:02:19.505Z,50.24
2019-05-09T09:04:48.872Z,51.26
2019-05-09T09:07:18.908Z,50.91
2019-05-09T09:09:48.672Z,50.86
2019-05-09T09:12:29.872Z,50.08
2019-05-09T09:14:49.528Z,50.53
2019-05-09T09:17:19.016Z,50.35
2019-05-09T09:19:48.714Z,49.95
2019-05-09T09:22:18.258Z,50.06
2019-05-09T09:24:48.262Z,49.86
2019-05-09T09:27:18.351Z,49.92
2019-05-09T09:29:48.260Z,48.48
2019-05-09T09:32:18.971Z,48.56
2019-05-09T09:34:48.745Z,48.30
2019-05-09T09:37:18.655Z,48.38
2019-05-09T09:39:48.988Z,47.57
2019-05-09T09:42:19.842Z,47.40
2019-05-09T09:44:49.815Z,47.83
2019-05-09T09:47:23.030Z,47.46
2019-05-09T09:49:50.457Z,47.47
2019-05-09T09:52:19.924Z,48.73
2019-05-09T09:54:49.481Z,47.26
2019-05-09T09:57:19.228Z,48.12
2019-05-09T09:59:52.902Z,47.54
2019-05-09T10:02:33.061Z,46.87
2019-05-09T10:05:02.600Z,46.84
2019-05-09T10:07:32.193Z,46.58
2019-05-09T10:10:01.747Z,45.92
2019-05-09T10:12:31.360Z,45.66
2019-05-09T10:15:14.666Z,45.66
2019-05-09T10:17:54.220Z,45.90
2019-05-09T10:20:38.537Z,46.95
2019-05-09T10:23:17.633Z,47.89
2019-05-09T10:25:39.430Z,47.05
2019-05-09T10:28:08.951Z,48.24
2019-05-09T10:30:38.543Z,47.84
2019-05-09T10:33:09.177Z,48.48
2019-05-09T10:35:39.387Z,47.92
2019-05-09T10:38:09.105Z,48.29
2019-05-09T10:40:39.906Z,48.22
2019-05-09T10:43:11.613Z,48.75
2019-05-09T10:45:58.622Z,49.37
2019-05-09T10:48:28.346Z,49.10
2019-05-09T10:51:03.787Z,49.15
2019-05-09T10:53:29.113Z,49.31
2019-05-09T10:55:58.571Z,48.47
2019-05-09T10:58:28.109Z,49.18
2019-05-09T11:00:58.695Z,49.39
2019-05-09T11:03:28.321Z,49.34
2019-05-09T11:05:58.042Z,49.53
2019-05-09T11:08:28.645Z,49.57
2019-05-09T11:10:58.265Z,48.73
2019-05-09T11:13:28.760Z,49.00
2019-05-09T11:15:58.426Z,48.47
2019-05-09T11:18:28.620Z,47.53
2019-05-09T11:20:58.270Z,47.59
2019-05-09T11:23:29.189Z,48.14
2019-05-09T11:25:58.810Z,48.38
2019-05-09T11:28:28.623Z,47.76
2019-05-09T11:30:58.483Z,47.67
2019-05-09T11:33:27.999Z,48.10
2019-05-09T11:35:58.089Z,47.98
2019-05-09T11:38:35.200Z,47.96
2019-05-09T11:40:58.977Z,48.11
2019-05-09T11:43:29.947Z,48.80
2019-05-09T11:45:59.529Z,48.83
2019-05-09T11:48:29.232Z,48.20
2019-05-09T11:50:59.086Z,48.81
2019-05-09T11:53:28.946Z,49.68
2019-05-09T11:55:58.559Z,49.58
2019-05-09T11:58:28.143Z,49.03
2019-05-09T12:00:57.709Z,49.97
2019-05-09T12:03:27.176Z,49.23
2019-05-09T12:05:58.324Z,48.83
2019-05-09T12:08:28.013Z,50.21
2019-05-09T12:10:57.924Z,50.36
2019-05-09T12:13:27.519Z,48.90
2019-05-09T12:15:58.458Z,49.50
2019-05-09T12:18:28.610Z,47.83
2019-05-09T12:20:58.198Z,48.13
2019-05-09T12:23:29.171Z,47.59
2019-05-09T12:25:58.685Z,47.20
2019-05-09T12:28:28.198Z,47.59
2019-05-09T12:30:57.674Z,45.60
2019-05-09T12:33:28.479Z,46.42
2019-05-09T12:35:59.367Z,46.25
2019-05-09T12:38:31.378Z,46.19
2019-05-09T12:41:01.012Z,46.88
2019-05-09T12:43:30.461Z,45.83
2019-05-09T12:45:59.946Z,45.32
2019-05-09T12:48:29.419Z,45.34
2019-05-09T12:50:59.205Z,45.10
2019-05-09T12:53:28.776Z,44.85
2019-05-09T12:56:01.151Z,44.99
2019-05-09T12:58:31.311Z,44.81
2019-05-09T13:01:00.919Z,44.51
2019-05-09T13:03:30.586Z,44.54
2019-05-09T13:06:00.174Z,44.77
2019-05-09T13:08:29.680Z,45.43
2019-05-09T13:11:02.316Z,45.32
2019-05-09T13:13:32.338Z,46.30
2019-05-09T13:16:18.211Z,45.86
2019-05-09T13:19:07.349Z,45.53
2019-05-09T13:21:38.993Z,44.72
2019-05-09T13:24:08.590Z,44.92
2019-05-09T13:26:38.748Z,45.01
2019-05-09T13:29:08.384Z,45.52
2019-05-09T13:31:39.715Z,44.81
2019-05-09T13:34:09.105Z,44.46
2019-05-09T13:36:38.601Z,44.63
2019-05-09T13:39:10.720Z,44.45
2019-05-09T13:41:40.690Z,44.34
2019-05-09T13:44:13.487Z,44.09
2019-05-09T13:46:41.444Z,44.21
2019-05-09T13:49:15.164Z,44.34
2019-05-09T13:51:49.539Z,44.32
2019-05-09T13:54:13.466Z,44.91
2019-05-09T13:56:42.938Z,44.81
2019-05-09T13:59:12.451Z,44.06
2019-05-09T14:01:41.998Z,45.07
2019-05-09T14:04:11.583Z,44.44
2019-05-09T14:06:41.070Z,44.81
2019-05-09T14:09:10.922Z,44.43
2019-05-09T14:11:40.469Z,44.98
2019-05-09T14:14:10.035Z,45.08
2019-05-09T14:16:39.564Z,45.92
2019-05-09T14:19:29.795Z,45.53
2019-05-09T14:21:40.419Z,45.77
2019-05-09T14:24:14.869Z,45.51
2019-05-09T14:26:41.133Z,45.73
2019-05-09T14:29:12.625Z,46.32
2019-05-09T14:31:41.827Z,46.28
2019-05-09T14:34:11.411Z,46.27
2019-05-09T14:36:45.242Z,46.88
2019-05-09T14:39:12.222Z,47.29
2019-05-09T14:41:41.805Z,47.95
2019-05-09T14:44:11.287Z,48.70
2019-05-09T14:46:40.760Z,48.01
2019-05-09T14:49:10.444Z,48.43
2019-05-09T14:51:40.002Z,48.46
2019-05-09T14:54:09.535Z,49.38
2019-05-09T14:56:42.017Z,49.53
2019-05-09T14:59:10.294Z,49.84
2019-05-09T15:01:43.671Z,50.10
2019-05-09T15:04:11.231Z,49.80
2019-05-09T15:06:40.698Z,49.29
2019-05-09T15:09:10.308Z,48.07
2019-05-09T15:11:39.960Z,47.98
2019-05-09T15:14:09.504Z,48.69
2019-05-09T15:16:39.458Z,47.96
2019-05-09T15:19:09.121Z,48.23
2019-05-09T15:21:38.665Z,48.29
2019-05-09T15:24:09.406Z,48.12
2019-05-09T15:26:39.201Z,47.81
2019-05-09T15:29:08.707Z,47.55
2019-05-09T15:31:39.327Z,47.68
2019-05-09T15:34:10.442Z,47.46
2019-05-09T15:36:40.036Z,47.42
2019-05-09T15:39:09.843Z,47.42
2019-05-09T15:41:39.330Z,47.49
2019-05-09T15:44:08.872Z,47.89
2019-05-09T15:46:40.107Z,47.40
2019-05-09T15:49:09.569Z,47.84
2019-05-09T15:51:39.124Z,47.69
2019-05-09T15:54:08.625Z,47.31
2019-05-09T15:56:38.553Z,46.76
2019-05-09T15:59:08.081Z,48.17
2019-05-09T16:01:38.575Z,47.48
2019-05-09T16:04:08.691Z,46.92
2019-05-09T16:06:39.207Z,47.27
2019-05-09T16:09:11.878Z,47.23
2019-05-09T16:11:40.220Z,47.51
2019-05-09T16:14:09.716Z,46.09
2019-05-09T16:16:39.227Z,45.85
2019-05-09T16:19:09.098Z,45.79
2019-05-09T16:21:38.629Z,45.86
2019-05-09T16:24:08.353Z,45.38
2019-05-09T16:26:38.526Z,44.85
2019-05-09T16:29:08.604Z,43.04
2019-05-09T16:31:38.867Z,42.64
2019-05-09T16:34:09.531Z,39.73
2019-05-09T16:36:39.417Z,39.19
2019-05-09T16:39:09.083Z,37.91
2019-05-09T16:41:39.425Z,36.95
2019-05-09T16:44:09.023Z,36.09
2019-05-09T16:46:38.637Z,36.16
2019-05-09T16:49:11.697Z,35.17
2019-05-09T16:51:40.505Z,33.86
2019-05-09T16:54:10.176Z,33.28
2019-05-09T16:56:39.669Z,32.55
2019-05-09T16:59:09.132Z,32.46
2019-05-09T17:01:40.414Z,32.55
2019-05-09T17:04:09.988Z,32.72
2019-05-09T17:06:39.544Z,33.71
2019-05-09T17:09:12.056Z,34.78
2019-05-09T17:11:42.130Z,35.68
2019-05-09T17:14:11.620Z,35.74
2019-05-09T17:16:41.241Z,37.23
2019-05-09T17:19:10.811Z,38.21
2019-05-09T17:21:45.037Z,38.54
2019-05-09T17:24:16.146Z,38.32
2019-05-09T17:26:48.683Z,38.13
2019-05-09T17:29:18.482Z,38.88
2019-05-09T17:32:07.933Z,38.56
2019-05-09T17:34:38.132Z,38.47
2019-05-09T17:37:08.109Z,37.48
2019-05-09T17:39:38.665Z,36.72
2019-05-09T17:42:08.320Z,37.40
2019-05-09T17:44:37.897Z,37.98
2019-05-09T17:47:08.300Z,37.65
2019-05-09T17:49:37.814Z,38.07
2019-05-09T17:52:07.680Z,38.30
2019-05-09T17:54:37.901Z,38.89
2019-05-09T17:57:08.402Z,40.57
2019-05-09T17:59:39.167Z,41.07
2019-05-09T18:02:08.918Z,42.70
2019-05-09T18:04:38.432Z,42.70
2019-05-09T18:07:08.904Z,43.51
2019-05-09T18:09:38.416Z,44.95
2019-05-09T18:12:08.369Z,45.53
2019-05-09T18:14:38.381Z,45.74
2019-05-09T18:17:07.934Z,46.29
2019-05-09T18:19:38.177Z,47.06
2019-05-09T18:22:08.306Z,47.41
2019-05-09T18:24:37.868Z,48.11
2019-05-09T18:27:07.833Z,48.69
2019-05-09T18:29:38.031Z,49.32
2019-05-09T18:32:13.624Z,49.89
2019-05-09T18:34:43.208Z,50.27
2019-05-09T18:37:12.768Z,51.10
2019-05-09T18:39:42.421Z,51.33
2019-05-09T18:42:12.035Z,52.22
2019-05-09T18:44:41.646Z,52.83
2019-05-09T18:47:11.114Z,54.23
2019-05-09T18:49:40.718Z,54.04
2019-05-09T18:52:10.199Z,54.93
2019-05-09T18:54:39.707Z,54.85
2019-05-09T18:57:09.265Z,55.79
2019-05-09T18:59:38.773Z,57.24
2019-05-09T19:02:08.406Z,56.99
2019-05-09T19:04:38.045Z,58.06
2019-05-09T19:07:21.178Z,58.26
2019-05-09T19:09:38.782Z,59.17
2019-05-09T19:12:08.295Z,58.79
2019-05-09T19:14:38.126Z,59.27
2019-05-09T19:17:44.697Z,59.61
2019-05-09T19:20:32.293Z,59.42
2019-05-09T19:23:01.899Z,59.19
2019-05-09T19:25:31.527Z,60.33
2019-05-09T19:28:01.110Z,60.43
2019-05-09T19:30:30.675Z,60.93
2019-05-09T19:33:00.213Z,60.72
2019-05-09T19:35:29.823Z,60.71
2019-05-09T19:37:59.385Z,61.56
2019-05-09T19:40:28.965Z,61.82
2019-05-09T19:42:58.546Z,62.43
2019-05-09T19:45:28.112Z,62.47
2019-05-09T19:47:57.681Z,63.25
2019-05-09T19:50:27.166Z,63.13
2019-05-09T19:52:56.636Z,63.09
2019-05-09T19:55:26.217Z,63.13
2019-05-09T19:57:55.713Z,62.81
2019-05-09T20:00:25.374Z,63.58
2019-05-09T20:02:54.969Z,64.35
2019-05-09T20:05:24.473Z,64.60
2019-05-09T20:07:53.996Z,64.39
2019-05-09T20:10:23.374Z,64.45
2019-05-09T20:13:07.732Z,64.46
2019-05-09T20:15:37.426Z,64.82
2019-05-09T20:18:07.011Z,64.79
2019-05-09T20:20:36.625Z,65.49
2019-05-09T20:23:06.153Z,65.44
2019-05-09T20:25:37.105Z,65.74
2019-05-09T20:28:06.657Z,65.84
2019-05-09T20:30:36.137Z,65.27
2019-05-09T20:33:06.020Z,65.71
2019-05-09T20:35:35.450Z,65.74
2019-05-09T20:38:05.289Z,65.62
2019-05-09T20:40:34.999Z,65.48
2019-05-09T20:43:04.681Z,65.64
2019-05-09T20:45:34.451Z,65.31
2019-05-09T20:48:05.234Z,66.16
2019-05-09T20:50:34.929Z,66.05
2019-05-09T20:53:09.609Z,66.46
2019-05-09T20:55:36.297Z,66.17
2019-05-09T20:58:06.031Z,66.52
2019-05-09T21:00:35.778Z,66.58
2019-05-09T21:03:07.981Z,66.25
2019-05-09T21:05:37.034Z,66.25
2019-05-09T21:08:06.690Z,66.59
2019-05-09T21:10:36.391Z,66.69
2019-05-09T21:13:06.242Z,66.96
2019-05-09T21:15:35.902Z,66.70
2019-05-09T21:18:05.775Z,66.39
2019-05-09T21:20:35.514Z,66.46
2019-05-09T21:23:05.242Z,66.58
2019-05-09T21:25:34.936Z,66.68
2019-05-09T21:28:04.604Z,67.10
2019-05-09T21:30:34.364Z,67.01
2019-05-09T21:33:04.117Z,66.86
2019-05-09T21:35:33.584Z,66.84
2019-05-09T21:38:03.083Z,66.91
2019-05-09T21:40:32.671Z,67.19
2019-05-09T21:43:02.157Z,66.75
2019-05-09T21:45:31.709Z,67.20
2019-05-09T21:48:01.215Z,66.95
2019-05-09T21:50:30.749Z,67.27
2019-05-09T21:53:00.323Z,67.10
2019-05-09T21:55:29.907Z,67.06
2019-05-09T21:57:59.374Z,67.34
2019-05-09T22:00:37.267Z,67.09
2019-05-09T22:03:07.339Z,67.28
2019-05-09T22:05:37.649Z,66.83
2019-05-09T22:08:07.336Z,67.06
2019-05-09T22:10:36.966Z,67.03
2019-05-09T22:13:06.574Z,66.88
2019-05-09T22:15:36.209Z,67.00
2019-05-09T22:18:05.910Z,67.16
2019-05-09T22:20:35.480Z,66.99
2019-05-09T22:23:06.538Z,66.60
2019-05-09T22:25:36.403Z,67.00
2019-05-09T22:28:05.978Z,67.24
2019-05-09T22:30:35.523Z,66.85
2019-05-09T22:33:05.097Z,66.93
2019-05-09T22:35:34.616Z,67.05
2019-05-09T22:38:04.099Z,67.04
2019-05-09T22:40:33.667Z,67.20
2019-05-09T22:43:03.203Z,67.14
2019-05-09T22:45:32.666Z,67.43
2019-05-09T22:48:02.174Z,67.31
2019-05-09T22:50:31.669Z,67.32
2019-05-09T22:53:01.231Z,67.07
2019-05-09T22:55:30.707Z,66.98
2019-05-09T22:58:00.269Z,67.17
2019-05-09T23:00:29.853Z,67.22
2019-05-09T23:02:59.351Z,67.22
2019-05-09T23:05:28.933Z,67.10
2019-05-09T23:07:58.417Z,67.11
2019-05-09T23:10:27.907Z,67.02
2019-05-09T23:12:57.368Z,67.06
2019-05-09T23:15:26.949Z,66.74
2019-05-09T23:17:56.479Z,66.46
2019-05-09T23:20:40.720Z,66.59
2019-05-09T23:23:25.038Z,66.25
2019-05-09T23:25:54.663Z,66.15
2019-05-09T23:28:24.984Z,66.05
2019-05-09T23:30:56.179Z,65.59
2019-05-09T23:33:27.406Z,66.12
2019-05-09T23:35:56.841Z,65.80
2019-05-09T23:38:26.414Z,65.92
2019-05-09T23:40:55.940Z,65.75
2019-05-09T23:43:25.443Z,65.63
2019-05-09T23:45:54.898Z,65.92
2019-05-09T23:48:24.424Z,65.77
2019-05-09T23:50:53.951Z,65.94
2019-05-09T23:53:33.088Z,65.93
2019-05-09T23:56:20.532Z,66.01
2019-05-09T23:59:09.948Z,65.78
